Time;durP1;ratioP1;P1;durP2;ratioP2;P2;SDS_P1;SDS_P2;PMS_P1;PMS_P2;Temp;Humidity;BMP_temperature;BMP_pressure;BME280_temperature;BME280_humidity;BME280_pressure;Samples;Min_cycle;Max_cycle;Signal;HPM_P1;HPM_P2
2022/02/03 00:04:57;;;;;;;28.03;19.07;;;4.00;79.30;;;;;;5061070;28;20220;-70
2022/02/03 00:07:44;;;;;;;25.43;18.73;;;3.90;79.60;;;;;;5051228;28;20215;-70
2022/02/03 00:26:55;;;;;;;27.03;20.53;;;4.10;81.80;;;;;;5044312;28;20199;-70
2022/02/03 00:29:46;;;;;;;32.30;19.07;;;4.10;82.10;;;;;;5047844;28;20199;-70
2022/02/03 00:51:10;;;;;;;30.73;20.10;;;4.40;82.50;;;;;;5045452;28;20203;-70
2022/02/03 00:53:38;;;;;;;27.50;18.83;;;4.40;82.10;;;;;;5045945;28;20552;-70
2022/02/03 00:56:13;;;;;;;29.83;19.23;;;4.40;81.70;;;;;;5049479;28;20293;-70
2022/02/03 00:58:43;;;;;;;25.37;18.30;;;4.30;81.50;;;;;;5042562;28;20253;-70
2022/02/03 01:01:16;;;;;;;27.57;18.73;;;4.30;81.20;;;;;;5051502;28;20205;-70
2022/02/03 01:03:49;;;;;;;24.27;17.67;;;4.20;80.30;;;;;;5048383;28;20216;-70
2022/02/03 01:06:18;;;;;;;28.47;19.00;;;4.20;79.80;;;;;;5038708;28;20197;-70
2022/02/03 01:08:47;;;;;;;28.00;18.33;;;4.10;80.50;;;;;;5052397;28;20230;-70
2022/02/03 01:11:21;;;;;;;28.93;18.37;;;4.10;81.00;;;;;;5049664;28;20204;-70
2022/02/03 01:13:58;;;;;;;28.70;18.67;;;4.10;81.50;;;;;;5032677;28;20225;-70
2022/02/03 01:45:57;;;;;;;24.53;16.93;;;3.70;81.90;;;;;;5048176;28;20656;-70
2022/02/03 01:53:50;;;;;;;20.97;15.37;;;3.60;81.90;;;;;;5038833;28;20296;-70
2022/02/03 01:56:25;;;;;;;28.67;17.80;;;3.60;81.50;;;;;;5038924;28;20204;-70
2022/02/03 01:58:58;;;;;;;25.97;17.13;;;3.50;80.50;;;;;;5034751;28;20211;-70
2022/02/03 02:01:33;;;;;;;25.13;16.27;;;3.40;80.90;;;;;;5043370;28;20294;-70
2022/02/03 02:04:09;;;;;;;27.73;17.50;;;3.40;81.70;;;;;;5044391;28;20534;-70
2022/02/03 02:06:51;;;;;;;33.93;17.27;;;3.40;83.10;;;;;;5050058;28;20218;-70
2022/02/03 02:09:43;;;;;;;25.83;15.90;;;3.40;82.50;;;;;;5026924;28;20648;-70
2022/02/03 02:12:27;;;;;;;23.97;16.63;;;3.40;82.50;;;;;;5044830;28;20241;-70
2022/02/03 02:15:43;;;;;;;23.47;15.53;;;3.30;82.70;;;;;;5043143;28;20232;-70
2022/02/03 02:37:50;;;;;;;35.77;18.10;;;3.30;81.80;;;;;;5042247;28;20195;-70
2022/02/03 02:43:15;;;;;;;24.80;17.50;;;3.20;81.30;;;;;;5036117;28;20202;-70
2022/02/03 02:45:53;;;;;;;25.13;16.17;;;3.10;81.20;;;;;;5049163;28;20708;-70
2022/02/03 02:48:38;;;;;;;23.20;15.47;;;3.10;81.10;;;;;;5050648;28;20547;-70
2022/02/03 02:51:14;;;;;;;26.50;16.20;;;3.00;81.10;;;;;;5043645;28;20211;-70
2022/02/03 03:35:43;;;;;;;29.87;17.27;;;2.70;83.90;;;;;;5049601;28;20292;-70
2022/02/03 03:38:00;;;;;;;29.63;17.47;;;2.60;84.10;;;;;;5050350;28;20219;-70
2022/02/03 03:40:31;;;;;;;25.77;17.30;;;2.50;85.00;;;;;;5059956;28;20226;-70
2022/02/03 03:43:07;;;;;;;25.33;16.83;;;2.50;85.40;;;;;;5058244;28;20257;-70
2022/02/03 03:45:35;;;;;;;32.33;17.57;;;2.50;85.80;;;;;;5050425;28;20208;-70
2022/02/03 03:48:07;;;;;;;26.67;16.53;;;2.50;85.50;;;;;;5047140;28;20199;-70
2022/02/03 03:50:36;;;;;;;25.20;17.43;;;2.50;85.10;;;;;;5046412;28;20289;-70
2022/02/03 03:53:15;;;;;;;26.97;17.67;;;2.50;85.20;;;;;;5055625;28;20218;-70
2022/02/03 04:50:44;;;;;;;22.87;14.83;;;2.10;82.60;;;;;;5048802;28;20542;-67
2022/02/03 05:15:25;;;;;;;27.30;17.17;;;1.90;86.00;;;;;;5038046;28;20203;-69
2022/02/03 05:51:14;;;;;;;28.93;17.43;;;1.90;87.60;;;;;;5042481;28;20222;-69
2022/02/03 06:16:08;;;;;;;34.83;21.77;;;1.70;89.30;;;;;;5042616;28;20592;-69
2022/02/03 06:29:04;;;;;;;36.73;21.87;;;1.80;90.50;;;;;;5043653;28;20233;-69
2022/02/03 06:31:39;;;;;;;34.57;20.80;;;1.80;91.20;;;;;;5047023;28;20215;-69
2022/02/03 06:34:06;;;;;;;31.30;20.13;;;1.90;91.60;;;;;;5052563;28;20217;-68
2022/02/03 06:36:35;;;;;;;31.87;20.63;;;1.90;91.90;;;;;;5050643;28;20552;-68
2022/02/03 06:39:02;;;;;;;32.00;20.90;;;2.00;91.80;;;;;;5046100;28;20230;-68
2022/02/03 06:41:29;;;;;;;36.13;20.77;;;2.00;91.70;;;;;;5042399;28;20641;-68
2022/02/03 06:43:57;;;;;;;31.77;20.50;;;2.00;91.80;;;;;;5050076;28;20506;-69
2022/02/03 06:46:26;;;;;;;31.57;18.00;;;2.00;91.90;;;;;;5049036;28;20198;-69
2022/02/03 06:49:05;;;;;;;28.63;18.20;;;2.00;91.60;;;;;;5049434;28;20214;-69
2022/02/03 06:51:35;;;;;;;32.03;17.97;;;2.10;90.90;;;;;;5044702;28;20206;-69
2022/02/03 06:54:16;;;;;;;28.77;18.00;;;2.10;90.30;;;;;;5040458;28;20269;-69
2022/02/03 06:56:51;;;;;;;32.43;18.63;;;2.10;89.60;;;;;;5043383;28;20303;-69
2022/02/03 06:59:25;;;;;;;32.20;18.53;;;2.20;88.40;;;;;;5036134;28;20206;-69
2022/02/03 07:01:52;;;;;;;25.77;17.40;;;2.30;87.30;;;;;;5051459;28;20242;-70
2022/02/03 07:04:24;;;;;;;26.97;17.37;;;2.40;85.90;;;;;;5043834;28;20221;-69
2022/02/03 07:06:51;;;;;;;24.97;16.47;;;2.50;85.70;;;;;;5047235;28;20210;-69
2022/02/03 07:09:20;;;;;;;27.30;18.20;;;2.50;85.00;;;;;;5051800;28;20243;-69
2022/02/03 07:11:47;;;;;;;31.80;18.37;;;2.60;84.70;;;;;;5037553;28;20229;-69
2022/02/03 07:14:14;;;;;;;27.50;17.57;;;2.60;84.80;;;;;;5047924;28;20207;-69
2022/02/03 07:16:47;;;;;;;30.10;18.73;;;2.70;84.80;;;;;;5041223;28;20237;-69
2022/02/03 07:19:16;;;;;;;26.23;17.90;;;2.80;84.00;;;;;;5043422;28;20210;-69
2022/02/03 07:21:46;;;;;;;27.00;17.70;;;2.80;83.60;;;;;;5034268;28;20319;-69
2022/02/03 07:24:14;;;;;;;29.73;18.67;;;2.80;83.70;;;;;;5039830;28;20279;-69
2022/02/03 07:26:41;;;;;;;28.20;18.13;;;2.70;83.90;;;;;;5049817;28;20219;-69
2022/02/03 07:29:08;;;;;;;29.67;18.00;;;2.70;83.90;;;;;;5042693;28;20196;-69
2022/02/03 07:31:35;;;;;;;26.67;16.63;;;2.70;84.40;;;;;;5049189;28;20495;-69
2022/02/03 07:34:09;;;;;;;25.47;17.57;;;2.60;84.50;;;;;;5033949;28;20599;-69
2022/02/03 07:36:37;;;;;;;31.87;19.63;;;2.70;84.50;;;;;;5044573;28;20582;-69
2022/02/03 07:39:05;;;;;;;33.17;19.67;;;3.00;84.20;;;;;;5025014;28;20203;-69
2022/02/03 07:41:33;;;;;;;30.33;18.97;;;3.30;83.20;;;;;;5037738;28;20632;-69
2022/02/03 07:44:00;;;;;;;27.87;18.10;;;3.50;82.70;;;;;;5049685;28;20270;-69
2022/02/03 07:46:30;;;;;;;30.77;19.13;;;3.60;83.00;;;;;;5035920;28;20704;-69
2022/02/03 07:48:58;;;;;;;33.07;19.87;;;3.60;83.90;;;;;;5032404;28;20226;-69
2022/02/03 07:51:25;;;;;;;31.60;18.70;;;3.70;84.10;;;;;;5043059;28;20252;-69
2022/02/03 07:53:53;;;;;;;30.00;19.50;;;3.90;84.00;;;;;;5051295;28;20681;-69
2022/02/03 07:56:21;;;;;;;31.90;20.47;;;4.10;83.60;;;;;;5033650;28;20227;-69
2022/02/03 07:58:48;;;;;;;32.00;19.93;;;4.30;83.50;;;;;;5036420;28;20210;-67
2022/02/03 08:01:15;;;;;;;32.53;21.27;;;4.40;83.60;;;;;;5040310;28;20208;-68
2022/02/03 08:03:44;;;;;;;33.07;20.77;;;4.50;83.80;;;;;;5043684;28;20243;-68
2022/02/03 08:06:29;;;;;;;31.73;20.13;;;4.60;84.10;;;;;;5043683;28;20531;-68
2022/02/03 08:09:06;;;;;;;35.53;21.23;;;4.70;84.40;;;;;;5043022;28;20241;-68
2022/02/03 08:11:39;;;;;;;31.53;20.63;;;4.80;84.80;;;;;;5054152;28;20646;-68
2022/02/03 08:14:12;;;;;;;38.57;22.50;;;4.90;85.40;;;;;;5045383;28;20632;-67
2022/02/03 08:16:52;;;;;;;32.00;21.10;;;5.00;85.80;;;;;;5042325;28;20546;-67
2022/02/03 08:19:36;;;;;;;43.27;23.43;;;5.10;86.20;;;;;;5049035;28;20662;-67
2022/02/03 08:22:13;;;;;;;31.50;22.73;;;5.20;86.50;;;;;;5049494;28;20334;-68
2022/02/03 08:32:46;;;;;;;33.87;21.43;;;5.60;87.20;;;;;;5037846;28;20222;-67
2022/02/03 08:35:22;;;;;;;32.70;21.20;;;5.70;87.30;;;;;;5044360;28;20220;-69
2022/02/03 08:40:30;;;;;;;39.27;24.57;;;5.90;87.40;;;;;;5050468;28;20201;-69
2022/02/03 08:42:58;;;;;;;32.60;23.33;;;6.00;87.70;;;;;;5053516;28;20197;-67
2022/02/03 08:45:25;;;;;;;41.37;25.37;;;6.10;88.20;;;;;;5041280;28;20213;-68
2022/02/03 08:47:52;;;;;;;34.57;21.97;;;6.20;88.80;;;;;;5044562;28;20215;-69
2022/02/03 08:50:20;;;;;;;29.20;20.53;;;6.30;89.60;;;;;;5047790;28;20234;-69
2022/02/03 08:53:00;;;;;;;31.87;21.07;;;6.40;90.10;;;;;;5054796;28;20217;-68
2022/02/03 09:39:38;;;;;;;27.83;18.73;;;8.40;90.30;;;;;;5050838;28;20543;-69
2022/02/03 09:54:11;;;;;;;21.93;16.83;;;8.90;90.00;;;;;;5036409;28;20245;-68
2022/02/03 09:56:23;;;;;;;20.97;16.17;;;9.00;90.00;;;;;;5035919;28;20248;-67
2022/02/03 09:59:12;;;;;;;19.77;15.93;;;9.10;89.50;;;;;;5042192;28;20214;-68
2022/02/03 10:01:55;;;;;;;23.73;15.57;;;9.30;89.90;;;;;;5049410;28;20202;-68
2022/02/03 10:04:46;;;;;;;20.23;15.17;;;9.50;88.50;;;;;;5053895;28;20226;-68
2022/02/03 10:07:24;;;;;;;20.43;14.07;;;9.60;87.50;;;;;;5048469;28;20206;-68
2022/02/03 10:10:07;;;;;;;22.60;14.70;;;9.70;86.80;;;;;;5046778;28;20276;-68
2022/02/03 10:12:40;;;;;;;22.50;15.90;;;9.90;86.90;;;;;;5047554;28;20265;-68
2022/02/03 10:15:10;;;;;;;19.80;14.60;;;10.00;86.70;;;;;;5041741;28;20207;-68
2022/02/03 10:17:41;;;;;;;22.47;14.63;;;10.20;85.90;;;;;;5048162;28;20693;-69
2022/02/03 10:20:17;;;;;;;23.40;14.63;;;10.20;85.70;;;;;;5042333;28;20211;-68
2022/02/03 10:22:56;;;;;;;17.43;12.50;;;10.30;85.30;;;;;;5042610;28;20556;-74
2022/02/03 10:25:34;;;;;;;15.60;11.93;;;10.50;84.60;;;;;;5039941;28;20249;-67
2022/02/03 10:28:08;;;;;;;18.27;12.20;;;10.60;83.40;;;;;;5042674;28;20223;-67
2022/02/03 10:30:49;;;;;;;19.23;13.67;;;10.60;82.20;;;;;;5050886;28;20225;-67
2022/02/03 10:33:17;;;;;;;18.60;12.00;;;10.70;82.40;;;;;;5051600;28;20220;-67
2022/02/03 10:35:50;;;;;;;14.33;11.60;;;10.80;82.80;;;;;;5041366;28;20209;-67
2022/02/03 10:46:59;;;;;;;18.07;11.23;;;11.20;82.00;;;;;;5041736;28;20259;-67
2022/02/03 11:10:41;;;;;;;12.93;9.30;;;12.20;77.50;;;;;;5049354;28;20207;-67
2022/02/03 11:13:10;;;;;;;17.23;8.67;;;12.30;77.80;;;;;;5051734;28;20209;-66
2022/02/03 11:15:38;;;;;;;17.07;8.60;;;12.50;77.60;;;;;;5040512;28;20280;-66
2022/02/03 11:18:07;;;;;;;19.50;9.40;;;12.60;76.80;;;;;;5045747;28;20232;-66
2022/02/03 11:20:41;;;;;;;13.67;7.93;;;12.60;76.20;;;;;;5044160;28;20205;-66
2022/02/03 11:29:04;;;;;;;15.57;7.77;;;12.90;75.20;;;;;;5051370;28;20212;-66
2022/02/03 11:38:03;;;;;;;15.27;7.20;;;13.10;76.00;;;;;;5036043;28;20225;-66
2022/02/03 11:40:31;;;;;;;14.67;7.13;;;13.20;75.20;;;;;;5048199;28;20223;-66
2022/02/03 11:52:11;;;;;;;8.27;4.53;;;13.80;72.90;;;;;;5054828;28;20206;-66
2022/02/03 12:04:42;;;;;;;9.70;4.77;;;14.10;65.50;;;;;;5054103;28;20655;-67
2022/02/03 12:18:44;;;;;;;11.60;4.27;;;14.60;63.40;;;;;;5043561;28;20559;-67
2022/02/03 12:23:37;;;;;;;13.90;4.87;;;14.70;62.70;;;;;;5056115;28;20270;-66
2022/02/03 12:26:10;;;;;;;7.37;4.53;;;14.70;62.90;;;;;;5047572;28;20208;-66
2022/02/03 12:39:12;;;;;;;15.33;5.27;;;14.90;64.70;;;;;;5040275;28;20204;-69
2022/02/03 12:41:59;;;;;;;9.90;5.50;;;15.00;65.20;;;;;;5041845;28;20213;-69
2022/02/03 12:44:28;;;;;;;11.00;4.77;;;15.10;65.10;;;;;;5045178;28;20211;-69
2022/02/03 12:47:02;;;;;;;10.20;4.90;;;15.20;66.40;;;;;;5041407;28;20706;-69
2022/02/03 12:49:30;;;;;;;8.07;4.63;;;15.30;64.10;;;;;;5037967;28;20228;-69
2022/02/03 12:51:58;;;;;;;10.80;4.87;;;15.30;64.30;;;;;;5051923;28;20307;-69
2022/02/03 12:54:25;;;;;;;8.80;4.87;;;15.30;62.60;;;;;;5048178;28;20220;-69
2022/02/03 12:57:02;;;;;;;12.43;5.53;;;15.30;62.10;;;;;;5052292;28;20226;-72
2022/02/03 12:59:32;;;;;;;12.47;5.17;;;15.30;62.20;;;;;;5039084;28;20290;-69
2022/02/03 13:02:09;;;;;;;15.00;5.63;;;15.30;63.00;;;;;;5058834;28;20207;-70
2022/02/03 13:04:38;;;;;;;8.50;4.87;;;15.30;62.90;;;;;;5044414;28;20592;-70
2022/02/03 13:07:09;;;;;;;7.57;5.23;;;15.20;62.80;;;;;;5052441;28;20292;-70
2022/02/03 13:09:52;;;;;;;12.07;5.73;;;15.20;64.70;;;;;;5040563;28;20644;-70
2022/02/03 13:12:31;;;;;;;10.13;5.00;;;15.10;65.50;;;;;;5050703;28;20207;-70
2022/02/03 13:15:00;;;;;;;6.60;4.90;;;15.10;65.30;;;;;;5053450;28;20646;-70
2022/02/03 13:17:34;;;;;;;10.57;5.60;;;15.10;64.80;;;;;;5053549;28;20223;-70
2022/02/03 13:20:25;;;;;;;11.60;5.77;;;15.10;64.10;;;;;;5052382;28;20659;-70
2022/02/03 13:23:06;;;;;;;15.73;6.00;;;15.10;64.50;;;;;;5037273;28;20329;-68
2022/02/03 13:28:09;;;;;;;12.77;5.50;;;15.10;62.70;;;;;;5048533;28;20211;-68
2022/02/03 13:30:48;;;;;;;7.87;5.13;;;15.10;62.20;;;;;;5042815;28;20318;-68
2022/02/03 13:33:25;;;;;;;10.33;5.17;;;15.10;60.90;;;;;;5040741;28;20259;-68
2022/02/03 13:35:57;;;;;;;14.23;5.43;;;15.00;60.50;;;;;;5051344;28;20574;-68
2022/02/03 13:39:16;;;;;;;10.40;5.40;;;15.00;59.30;;;;;;5048200;28;20657;-68
2022/02/03 13:41:23;;;;;;;9.50;5.10;;;14.90;58.30;;;;;;5048311;28;20230;-68
2022/02/03 13:43:51;;;;;;;9.37;4.93;;;14.80;59.00;;;;;;5049678;28;20198;-68
2022/02/03 13:46:37;;;;;;;10.40;5.50;;;14.80;59.30;;;;;;5036007;28;20209;-68
2022/02/03 13:49:12;;;;;;;6.33;4.30;;;14.70;58.90;;;;;;5054590;28;20206;-68
2022/02/03 13:51:40;;;;;;;12.27;5.20;;;14.60;58.00;;;;;;5042331;28;20206;-68
2022/02/03 14:10:28;;;;;;;9.27;4.70;;;14.60;58.10;;;;;;5047236;28;20236;-68
2022/02/03 14:19:28;;;;;;;7.43;4.27;;;14.50;56.70;;;;;;5038153;28;20216;-69
2022/02/03 14:22:04;;;;;;;5.73;4.50;;;14.40;56.90;;;;;;5052175;28;20310;-70
2022/02/03 14:27:25;;;;;;;7.17;4.03;;;14.30;56.60;;;;;;5045721;28;20631;-70
2022/02/03 14:30:04;;;;;;;10.07;5.07;;;14.30;56.20;;;;;;5046423;28;20210;-70
2022/02/03 14:32:36;;;;;;;5.03;4.10;;;14.20;56.30;;;;;;5051804;28;20205;-70
2022/02/03 14:35:09;;;;;;;6.87;4.13;;;14.10;56.90;;;;;;5051881;28;20204;-70
2022/02/03 14:38:01;;;;;;;12.13;5.07;;;14.10;56.10;;;;;;5048618;28;20248;-70
2022/02/03 14:42:57;;;;;;;11.67;4.87;;;13.90;56.20;;;;;;5037244;28;20215;-70
2022/02/03 14:45:24;;;;;;;10.73;4.53;;;13.90;56.30;;;;;;5037105;28;20224;-70
2022/02/03 14:47:51;;;;;;;6.73;4.20;;;13.80;55.70;;;;;;5038657;28;20221;-70
2022/02/03 14:50:20;;;;;;;9.80;5.00;;;13.80;55.70;;;;;;5041998;28;20218;-70
2022/02/03 14:52:58;;;;;;;9.37;5.80;;;13.70;56.30;;;;;;5046290;28;20232;-70
2022/02/03 14:58:26;;;;;;;8.23;5.20;;;13.60;57.90;;;;;;5040017;28;20243;-69
2022/02/03 15:00:53;;;;;;;11.93;5.43;;;13.60;57.20;;;;;;5040005;28;20216;-70
2022/02/03 15:03:22;;;;;;;11.87;6.63;;;13.50;57.50;;;;;;5043996;28;20238;-69
2022/02/03 15:05:55;;;;;;;14.60;6.23;;;13.50;57.70;;;;;;5047145;28;20231;-69
2022/02/03 15:08:47;;;;;;;9.73;4.87;;;13.50;58.30;;;;;;5051738;28;20218;-69
2022/02/03 15:11:17;;;;;;;8.67;5.03;;;13.50;58.40;;;;;;5048455;28;20219;-70
2022/02/03 15:13:48;;;;;;;7.30;4.73;;;13.50;58.90;;;;;;5045031;28;20209;-69
2022/02/03 15:16:16;;;;;;;10.40;5.40;;;13.40;58.90;;;;;;5041375;28;20214;-69
2022/02/03 15:19:03;;;;;;;10.97;5.17;;;13.40;59.10;;;;;;5055114;28;20214;-69
2022/02/03 15:21:30;;;;;;;7.77;4.23;;;13.30;59.30;;;;;;5053448;28;20246;-69
2022/02/03 15:23:58;;;;;;;10.90;4.90;;;13.30;59.70;;;;;;5049454;28;20207;-69
2022/02/03 15:26:25;;;;;;;11.00;5.70;;;13.30;59.90;;;;;;5045340;28;20216;-70
2022/02/03 15:28:53;;;;;;;8.77;5.00;;;13.20;60.40;;;;;;5050818;28;20280;-69
2022/02/03 15:31:26;;;;;;;8.33;5.17;;;13.10;60.40;;;;;;5050245;28;20668;-69
2022/02/03 15:33:58;;;;;;;8.90;5.07;;;13.10;60.70;;;;;;5056408;28;20245;-69
2022/02/03 15:36:25;;;;;;;7.93;5.63;;;13.00;61.00;;;;;;5047555;28;20629;-69
2022/02/03 15:38:55;;;;;;;9.33;5.03;;;13.00;61.40;;;;;;5048577;28;20287;-69
2022/02/03 15:41:28;;;;;;;6.63;4.77;;;12.90;61.70;;;;;;5040200;28;20610;-69
2022/02/03 15:43:57;;;;;;;10.87;5.60;;;12.80;61.90;;;;;;5037248;28;20221;-69
2022/02/03 15:46:26;;;;;;;9.60;5.57;;;12.80;62.20;;;;;;5057165;28;20222;-69
2022/02/03 15:56:59;;;;;;;8.83;5.80;;;12.50;63.50;;;;;;5039319;28;20210;-69
2022/02/03 16:02:44;;;;;;;11.73;6.07;;;12.40;64.20;;;;;;5048259;28;20205;-69
2022/02/03 16:19:01;;;;;;;8.73;6.20;;;11.90;65.80;;;;;;5071959;28;20230;-69
2022/02/03 16:21:41;;;;;;;13.83;7.43;;;11.80;66.10;;;;;;5050955;28;20251;-69
2022/02/03 16:24:21;;;;;;;10.13;6.67;;;11.70;66.50;;;;;;5044849;28;20230;-69
2022/02/03 16:54:24;;;;;;;13.47;6.50;;;10.60;71.70;;;;;;5055391;28;20216;-69
2022/02/03 16:56:57;;;;;;;11.83;6.33;;;10.50;71.60;;;;;;5049464;28;20706;-69
2022/02/03 16:59:25;;;;;;;17.93;7.57;;;10.40;71.70;;;;;;5044008;28;20227;-69
2022/02/03 17:01:52;;;;;;;19.43;7.77;;;10.30;72.30;;;;;;5049011;28;20222;-69
2022/02/03 17:04:19;;;;;;;14.03;6.80;;;10.30;72.80;;;;;;5037873;28;20210;-69
2022/02/03 17:06:47;;;;;;;12.47;7.03;;;10.20;73.30;;;;;;5050571;28;20211;-69
2022/02/03 17:09:14;;;;;;;16.53;6.87;;;10.20;73.90;;;;;;5046827;28;20203;-69
2022/02/03 17:11:41;;;;;;;14.57;6.53;;;10.20;74.90;;;;;;5046616;28;20215;-69
2022/02/03 17:14:08;;;;;;;16.77;6.70;;;10.10;74.30;;;;;;5039779;28;20204;-69
2022/02/03 17:16:35;;;;;;;17.77;7.83;;;10.10;74.40;;;;;;5054524;28;20210;-69
2022/02/03 17:19:02;;;;;;;11.30;6.77;;;10.10;74.40;;;;;;5052121;28;20222;-69
2022/02/03 17:21:31;;;;;;;13.57;5.87;;;10.00;74.20;;;;;;5043549;28;20234;-69
2022/02/03 17:23:58;;;;;;;14.73;6.37;;;10.00;74.40;;;;;;5047392;28;20533;-69
2022/02/03 17:26:33;;;;;;;13.37;6.03;;;10.00;74.90;;;;;;5052017;28;20321;-69
2022/02/03 17:29:33;;;;;;;12.53;6.67;;;9.90;75.20;;;;;;5054708;28;20281;-69
2022/02/03 18:06:12;;;;;;;15.10;7.43;;;9.30;78.60;;;;;;5036106;28;20211;-69
2022/02/03 18:10:46;;;;;;;24.03;6.83;;;9.10;79.00;;;;;;5047804;28;20211;-69
2022/02/03 18:37:13;;;;;;;13.63;5.57;;;8.80;82.70;;;;;;5050610;28;20218;-69
2022/02/03 18:50:35;;;;;;;18.77;6.67;;;8.60;83.50;;;;;;5046642;28;20199;-69
2022/02/03 18:53:13;;;;;;;10.97;5.40;;;8.50;83.80;;;;;;5043141;28;20211;-69
2022/02/03 19:09:28;;;;;;;14.97;5.10;;;8.30;86.20;;;;;;5047814;28;20654;-69
2022/02/03 19:14:43;;;;;;;18.17;5.20;;;8.20;88.90;;;;;;5040891;28;20211;-69
2022/02/03 20:08:49;;;;;;;23.43;7.97;;;7.70;91.30;;;;;;5041525;28;20202;-69
2022/02/03 20:11:18;;;;;;;16.53;7.27;;;7.70;91.40;;;;;;5045187;28;20629;-69
2022/02/03 20:13:47;;;;;;;17.90;7.83;;;7.70;91.40;;;;;;5040003;28;20210;-69
2022/02/03 20:16:17;;;;;;;12.47;6.90;;;7.70;91.40;;;;;;5044021;28;20202;-69
2022/02/03 20:18:44;;;;;;;16.17;7.37;;;7.70;91.50;;;;;;5044371;28;20229;-69
2022/02/03 20:21:12;;;;;;;14.30;7.27;;;7.70;91.70;;;;;;5039418;28;20242;-69
2022/02/03 20:23:44;;;;;;;22.47;7.20;;;7.70;91.80;;;;;;5039242;28;20656;-69
2022/02/03 20:26:13;;;;;;;16.73;7.43;;;7.70;91.80;;;;;;5041192;28;20546;-69
2022/02/03 20:28:40;;;;;;;13.80;6.53;;;7.70;91.70;;;;;;5042880;28;20203;-69
2022/02/03 20:31:07;;;;;;;14.10;7.73;;;7.70;91.70;;;;;;5041838;28;20560;-69
2022/02/03 20:33:34;;;;;;;15.17;7.03;;;7.70;91.70;;;;;;5050638;28;20203;-69
2022/02/03 20:36:01;;;;;;;19.93;7.70;;;7.70;91.70;;;;;;5038052;28;20203;-69
2022/02/03 20:38:28;;;;;;;27.27;7.40;;;7.80;91.80;;;;;;5044867;28;20230;-69
2022/02/03 20:40:55;;;;;;;16.67;7.43;;;7.80;91.80;;;;;;5042780;28;20210;-69
2022/02/03 20:43:24;;;;;;;21.37;7.17;;;7.80;91.70;;;;;;5042453;28;20203;-69
2022/02/03 20:45:52;;;;;;;14.23;7.67;;;7.80;91.70;;;;;;5048913;28;20221;-69
2022/02/03 20:48:20;;;;;;;15.30;6.70;;;7.80;91.60;;;;;;5042917;28;20199;-69
2022/02/03 20:50:49;;;;;;;14.73;7.43;;;7.80;91.50;;;;;;5032752;28;20232;-69
2022/02/03 20:53:17;;;;;;;19.17;7.63;;;7.80;91.70;;;;;;5045584;28;20197;-69
2022/02/03 20:55:45;;;;;;;17.90;7.40;;;7.70;91.40;;;;;;5023889;28;20224;-69
2022/02/03 20:58:17;;;;;;;16.50;7.93;;;7.70;91.50;;;;;;5037899;28;20203;-69
2022/02/03 21:00:58;;;;;;;20.43;7.53;;;7.70;91.60;;;;;;5044519;28;20565;-69
2022/02/03 21:03:33;;;;;;;14.33;7.03;;;7.80;91.60;;;;;;5041841;28;20594;-69
2022/02/03 21:06:02;;;;;;;15.13;6.83;;;7.80;91.60;;;;;;5039874;28;20224;-69
2022/02/03 21:08:34;;;;;;;20.93;7.90;;;7.80;91.60;;;;;;5042219;28;20202;-69
2022/02/03 21:11:03;;;;;;;16.23;7.93;;;7.70;91.40;;;;;;5046298;28;20288;-69
2022/02/03 21:13:30;;;;;;;26.67;8.97;;;7.70;91.30;;;;;;5043894;28;20240;-69
2022/02/03 21:15:59;;;;;;;20.17;9.37;;;7.70;91.30;;;;;;5042815;28;20199;-69
2022/02/03 21:18:26;;;;;;;15.40;7.97;;;7.70;91.30;;;;;;5039707;28;20218;-69
2022/02/03 21:20:53;;;;;;;16.80;7.37;;;7.70;91.30;;;;;;5035437;28;20191;-70
2022/02/03 21:23:21;;;;;;;15.13;7.20;;;7.70;91.40;;;;;;5042679;28;20206;-69
2022/02/03 21:25:54;;;;;;;13.77;6.67;;;7.70;91.30;;;;;;5045294;28;20255;-69
2022/02/03 21:28:29;;;;;;;18.57;7.10;;;7.70;91.20;;;;;;5042959;28;20203;-69
2022/02/03 21:30:57;;;;;;;12.37;7.60;;;7.60;91.00;;;;;;5042685;28;20206;-69
2022/02/03 21:33:45;;;;;;;19.97;7.57;;;7.60;90.90;;;;;;5048515;28;20209;-69
2022/02/03 21:36:14;;;;;;;14.10;6.80;;;7.60;90.90;;;;;;5043721;28;20563;-69
2022/02/03 21:38:42;;;;;;;11.93;5.67;;;7.60;91.00;;;;;;5044234;28;20212;-69
2022/02/03 21:41:11;;;;;;;17.20;7.87;;;7.50;91.00;;;;;;5044392;28;20232;-69
2022/02/03 21:43:38;;;;;;;16.07;6.87;;;7.60;91.00;;;;;;5045254;28;20209;-69
2022/02/03 21:46:07;;;;;;;14.80;7.13;;;7.60;91.00;;;;;;5047036;28;20268;-69
2022/02/03 21:48:34;;;;;;;15.90;6.80;;;7.50;90.90;;;;;;5041581;28;20581;-69
2022/02/03 21:51:03;;;;;;;12.30;6.90;;;7.50;90.90;;;;;;5042633;28;20201;-69
2022/02/03 21:53:33;;;;;;;10.73;6.43;;;7.50;90.70;;;;;;5051799;28;20693;-69
2022/02/03 21:56:00;;;;;;;15.20;6.87;;;7.50;90.40;;;;;;5018841;28;20210;-69
2022/02/03 21:58:27;;;;;;;22.23;9.60;;;7.40;90.40;;;;;;5019324;28;20206;-69
2022/02/03 22:00:59;;;;;;;20.93;8.50;;;7.40;90.70;;;;;;5043055;28;20577;-69
2022/02/03 22:03:29;;;;;;;18.70;8.90;;;7.30;91.00;;;;;;5045643;28;20531;-69
2022/02/03 22:05:57;;;;;;;20.70;7.93;;;7.30;91.20;;;;;;5042214;28;20214;-69
2022/02/03 22:08:26;;;;;;;15.07;7.70;;;7.30;91.30;;;;;;5041421;28;20197;-69
2022/02/03 22:11:00;;;;;;;20.03;8.97;;;7.30;91.40;;;;;;5046016;28;20254;-69
2022/02/03 22:13:35;;;;;;;18.00;8.43;;;7.30;91.40;;;;;;5043281;28;20205;-69
2022/02/03 22:16:12;;;;;;;17.13;7.50;;;7.30;91.40;;;;;;5044181;28;20197;-69
2022/02/03 22:18:39;;;;;;;19.80;7.27;;;7.30;91.70;;;;;;5042405;28;20244;-69
2022/02/03 22:21:26;;;;;;;10.47;6.27;;;7.20;91.30;;;;;;5049426;28;20249;-69
2022/02/03 22:45:56;;;;;;;13.73;7.10;;;7.10;90.80;;;;;;5038885;28;20271;-69
2022/02/03 22:48:26;;;;;;;16.53;7.63;;;7.10;90.90;;;;;;5050447;28;20202;-69
2022/02/03 22:50:59;;;;;;;14.47;6.60;;;7.10;91.00;;;;;;5043616;28;20213;-69
2022/02/03 22:53:33;;;;;;;17.17;8.07;;;7.10;91.10;;;;;;5047761;28;20299;-69
2022/02/03 22:56:02;;;;;;;14.70;6.73;;;7.10;91.10;;;;;;5048331;28;20264;-69
2022/02/03 23:01:09;;;;;;;17.93;8.07;;;7.00;91.10;;;;;;5041398;28;20221;-69
2022/02/03 23:03:37;;;;;;;19.00;7.73;;;7.00;91.10;;;;;;5041174;28;20229;-69
2022/02/03 23:06:04;;;;;;;27.83;8.67;;;7.00;90.90;;;;;;5043632;28;20199;-69
2022/02/03 23:24:32;;;;;;;16.17;8.70;;;6.80;91.10;;;;;;5050462;28;20214;-68
2022/02/03 23:29:51;;;;;;;23.37;10.20;;;6.80;91.20;;;;;;5045557;28;20225;-68
2022/02/03 23:32:19;;;;;;;25.10;8.73;;;6.80;91.10;;;;;;5040159;28;20645;-68
2022/02/03 23:34:53;;;;;;;19.33;9.67;;;6.80;91.20;;;;;;5040040;28;20213;-68
2022/02/03 23:37:20;;;;;;;14.77;8.50;;;6.80;91.30;;;;;;5044595;28;20210;-68
2022/02/03 23:45:49;;;;;;;25.40;7.57;;;6.70;91.20;;;;;;5044628;28;20288;-68
